createdAt,value
2023-03-26T00:00:22.215Z,92.46
2023-03-26T00:05:23.926Z,92.60
2023-03-26T00:10:25.500Z,93.25
2023-03-26T00:15:26.948Z,93.63
2023-03-26T00:20:32.727Z,93.61
2023-03-26T00:25:34.808Z,94.24
2023-03-26T00:30:36.533Z,93.99
2023-03-26T00:35:38.644Z,93.98
2023-03-26T00:40:44.021Z,94.33
2023-03-26T00:45:55.435Z,94.50
2023-03-26T00:50:57.647Z,94.63
2023-03-26T00:56:00.481Z,94.73
2023-03-26T01:01:05.619Z,94.88
2023-03-26T01:06:13.958Z,94.87
2023-03-26T01:11:25.792Z,94.85
2023-03-26T01:16:41.497Z,94.85
2023-03-26T01:21:43.144Z,94.70
2023-03-26T01:26:57.149Z,94.76
2023-03-26T01:32:21.844Z,94.67
2023-03-26T01:37:46.659Z,94.61
2023-03-26T01:43:13.418Z,94.58
2023-03-26T01:48:15.372Z,94.54
2023-03-26T01:53:16.973Z,94.38
2023-03-26T01:58:27.938Z,94.54
2023-03-26T02:03:39.092Z,94.37
2023-03-26T02:08:45.570Z,94.53
2023-03-26T02:13:47.306Z,94.38
2023-03-26T02:18:51.360Z,94.15
2023-03-26T02:24:02.572Z,94.24
2023-03-26T02:29:06.435Z,93.53
2023-03-26T02:34:10.277Z,93.69
2023-03-26T02:39:14.327Z,92.96
2023-03-26T02:44:18.883Z,92.96
2023-03-26T02:49:40.677Z,92.64
2023-03-26T02:54:42.654Z,92.19
2023-03-26T02:59:58.251Z,92.00
2023-03-26T03:05:12.043Z,90.93
2023-03-26T03:10:15.437Z,90.67
2023-03-26T03:15:38.510Z,90.40
2023-03-26T03:20:40.297Z,90.25
2023-03-26T03:25:42.847Z,89.78
2023-03-26T03:30:44.721Z,89.45
2023-03-26T03:35:56.756Z,89.30
2023-03-26T03:40:59.268Z,89.09
2023-03-26T03:46:09.278Z,89.06
2023-03-26T03:51:19.441Z,89.00
2023-03-26T03:56:24.202Z,89.14
2023-03-26T04:01:48.810Z,89.15
2023-03-26T04:07:00.328Z,89.00
2023-03-26T04:12:09.404Z,89.19
2023-03-26T04:17:23.034Z,89.00
2023-03-26T04:22:34.524Z,89.01
2023-03-26T04:27:41.620Z,89.35
2023-03-26T04:33:06.690Z,89.43
2023-03-26T04:38:12.823Z,89.32
2023-03-26T04:43:18.496Z,89.23
2023-03-26T04:48:41.686Z,89.22
2023-03-26T04:53:52.045Z,88.86
2023-03-26T04:59:13.729Z,100.00
2023-03-26T05:04:15.967Z,88.86
2023-03-26T05:09:18.051Z,88.68
2023-03-26T05:14:57.725Z,88.80
2023-03-26T05:20:32.825Z,89.16
2023-03-26T05:25:37.335Z,89.07
2023-03-26T05:30:46.704Z,89.42
2023-03-26T05:35:59.681Z,89.36
2023-03-26T05:41:04.663Z,89.48
2023-03-26T05:46:07.809Z,89.56
2023-03-26T05:51:09.629Z,89.52
2023-03-26T05:56:16.049Z,89.70
2023-03-26T06:01:50.893Z,89.59
2023-03-26T06:07:21.631Z,89.77
2023-03-26T06:12:36.888Z,89.60
2023-03-26T06:17:39.200Z,89.73
2023-03-26T06:22:49.123Z,89.58
2023-03-26T06:28:08.510Z,89.92
2023-03-26T06:33:13.011Z,89.29
2023-03-26T06:38:20.878Z,89.10
2023-03-26T06:43:22.559Z,88.73
2023-03-26T06:48:43.244Z,88.55
2023-03-26T06:54:03.499Z,88.26
2023-03-26T06:59:23.686Z,87.69
2023-03-26T07:04:48.336Z,87.31
2023-03-26T07:10:09.138Z,86.90
2023-03-26T07:15:29.627Z,85.74
2023-03-26T07:20:45.356Z,85.11
2023-03-26T07:25:48.666Z,84.37
2023-03-26T07:31:24.821Z,84.04
2023-03-26T07:36:50.680Z,83.89
2023-03-26T07:42:33.206Z,83.34
2023-03-26T07:47:53.878Z,82.99
2023-03-26T07:53:05.774Z,82.30
2023-03-26T07:58:45.762Z,81.33
2023-03-26T08:10:54.628Z,79.87
2023-03-26T08:16:13.921Z,79.33
2023-03-26T08:21:45.378Z,79.01
2023-03-26T08:27:18.102Z,78.75
2023-03-26T08:32:23.105Z,78.45
2023-03-26T08:37:28.497Z,78.23
2023-03-26T08:42:42.802Z,77.64
2023-03-26T08:48:08.502Z,77.24
2023-03-26T08:53:28.868Z,77.16
2023-03-26T08:59:40.174Z,76.79
2023-03-26T09:05:06.975Z,76.22
2023-03-26T09:10:11.458Z,75.87
2023-03-26T09:15:35.783Z,75.11
2023-03-26T09:21:15.441Z,74.48
2023-03-26T09:26:38.391Z,74.32
2023-03-26T09:31:58.409Z,74.11
2023-03-26T09:37:18.757Z,73.57
2023-03-26T09:42:37.770Z,73.13
2023-03-26T09:47:56.374Z,72.32
2023-03-26T09:53:21.579Z,72.25
2023-03-26T09:58:48.300Z,71.42
2023-03-26T10:04:29.326Z,71.12
2023-03-26T10:09:31.346Z,70.91
2023-03-26T10:14:46.325Z,70.46
2023-03-26T10:20:52.746Z,70.06
2023-03-26T10:26:33.503Z,69.19
2023-03-26T10:31:55.856Z,68.45
2023-03-26T10:37:16.278Z,68.33
2023-03-26T10:42:23.986Z,67.87
2023-03-26T10:47:31.526Z,68.79
2023-03-26T10:52:43.032Z,68.20
2023-03-26T10:57:59.915Z,67.90
2023-03-26T11:03:29.267Z,67.44
2023-03-26T11:08:35.380Z,67.88
2023-03-26T11:13:43.108Z,67.18
2023-03-26T11:18:58.252Z,67.67
2023-03-26T11:24:14.852Z,67.20
2023-03-26T11:29:39.001Z,66.86
2023-03-26T11:35:04.239Z,66.10
2023-03-26T11:40:21.289Z,66.23
2023-03-26T11:45:27.534Z,65.64
2023-03-26T11:50:35.049Z,65.12
2023-03-26T11:55:37.261Z,64.56
2023-03-26T12:00:40.461Z,64.13
2023-03-26T12:06:09.353Z,63.81
2023-03-26T12:11:12.404Z,62.77
2023-03-26T12:16:17.685Z,61.41
2023-03-26T12:21:20.117Z,61.51
2023-03-26T12:26:31.905Z,61.56
2023-03-26T12:31:46.707Z,61.26
2023-03-26T12:36:56.678Z,61.02
2023-03-26T12:43:40.480Z,60.60
2023-03-26T12:47:58.717Z,59.38
2023-03-26T12:53:29.060Z,58.92
2023-03-26T12:59:05.316Z,58.16
2023-03-26T13:04:35.740Z,58.41
2023-03-26T13:10:01.740Z,58.12
2023-03-26T13:15:09.328Z,57.80
2023-03-26T13:20:42.929Z,58.03
2023-03-26T13:26:11.109Z,58.87
2023-03-26T13:31:22.350Z,58.92
2023-03-26T13:36:42.867Z,58.58
2023-03-26T13:42:02.961Z,58.42
2023-03-26T13:47:14.989Z,59.08
2023-03-26T13:52:25.118Z,58.33
2023-03-26T13:57:33.165Z,57.79
2023-03-26T14:02:47.767Z,57.60
2023-03-26T14:08:19.825Z,57.93
2023-03-26T14:14:00.210Z,57.70
2023-03-26T14:19:19.139Z,57.43
2023-03-26T14:24:27.687Z,57.37
2023-03-26T14:29:56.780Z,57.57
2023-03-26T14:35:13.956Z,57.98
2023-03-26T14:40:21.346Z,57.56
2023-03-26T14:46:04.876Z,57.58
2023-03-26T14:51:31.545Z,57.56
2023-03-26T14:56:51.686Z,57.61
2023-03-26T15:02:11.923Z,58.08
2023-03-26T15:07:37.051Z,58.00
2023-03-26T15:13:28.450Z,57.88
2023-03-26T15:18:29.886Z,58.09
2023-03-26T15:23:53.003Z,57.86
2023-03-26T15:29:03.710Z,57.81
2023-03-26T15:34:42.338Z,57.96
2023-03-26T15:40:08.460Z,58.01
2023-03-26T15:45:29.967Z,58.40
2023-03-26T15:50:56.257Z,57.46
2023-03-26T15:56:32.731Z,57.80
2023-03-26T16:01:49.139Z,58.15
2023-03-26T16:06:54.828Z,58.50
2023-03-26T16:12:19.532Z,58.99
2023-03-26T16:17:23.608Z,59.51
2023-03-26T16:22:53.131Z,59.61
2023-03-26T16:28:13.077Z,60.17
2023-03-26T16:33:18.600Z,60.27
2023-03-26T16:38:24.829Z,60.47
2023-03-26T16:43:39.100Z,60.67
2023-03-26T16:48:57.796Z,60.86
2023-03-26T16:54:41.211Z,61.64
2023-03-26T17:00:06.265Z,62.13
2023-03-26T17:05:50.247Z,62.17
2023-03-26T17:10:56.351Z,62.35
2023-03-26T17:16:13.349Z,62.80
2023-03-26T17:21:46.333Z,63.31
2023-03-26T17:27:00.525Z,63.69
2023-03-26T17:32:14.894Z,100.00
2023-03-26T17:37:16.756Z,63.69
2023-03-26T17:42:35.951Z,64.63
2023-03-26T17:47:59.028Z,65.18
2023-03-26T17:53:04.839Z,65.54
2023-03-26T17:58:19.831Z,65.85
2023-03-26T18:03:30.888Z,65.80
2023-03-26T18:08:45.899Z,66.30
2023-03-26T18:14:21.602Z,66.67
2023-03-26T18:19:23.786Z,66.66
2023-03-26T18:24:30.050Z,66.77
2023-03-26T18:29:35.153Z,66.92
2023-03-26T18:34:49.775Z,66.92
2023-03-26T18:40:12.702Z,100.00
2023-03-26T18:45:22.887Z,100.00
2023-03-26T18:50:36.777Z,100.00
2023-03-26T18:55:39.689Z,100.00
2023-03-26T19:00:42.673Z,67.66
2023-03-26T19:05:44.377Z,67.58
2023-03-26T19:10:48.091Z,67.50
2023-03-26T19:15:51.835Z,67.59
2023-03-26T19:21:02.042Z,67.87
2023-03-26T19:26:05.376Z,68.21
2023-03-26T19:31:06.964Z,68.49
2023-03-26T19:36:14.653Z,69.04
2023-03-26T19:41:27.064Z,69.29
2023-03-26T19:46:34.064Z,69.41
2023-03-26T19:52:13.870Z,69.79
2023-03-26T19:57:15.541Z,69.96
2023-03-26T20:02:17.603Z,70.40
2023-03-26T20:07:22.069Z,70.33
2023-03-26T20:12:37.638Z,70.27
2023-03-26T20:17:42.793Z,70.50
2023-03-26T20:22:46.881Z,70.46
2023-03-26T20:27:48.868Z,70.20
2023-03-26T20:32:50.945Z,70.16
2023-03-26T20:38:12.554Z,70.44
2023-03-26T20:43:18.413Z,70.23
2023-03-26T20:48:20.049Z,70.56
2023-03-26T20:53:22.023Z,70.42
2023-03-26T20:58:31.463Z,70.59
2023-03-26T21:03:33.824Z,70.82
2023-03-26T21:08:36.701Z,71.22
2023-03-26T21:13:45.283Z,70.95
2023-03-26T21:18:47.055Z,71.14
2023-03-26T21:24:00.095Z,71.39
2023-03-26T21:29:02.627Z,71.32
2023-03-26T21:34:05.513Z,71.49
2023-03-26T21:39:07.635Z,71.74
2023-03-26T21:44:09.360Z,71.45
2023-03-26T21:49:11.838Z,71.52
2023-03-26T21:54:26.851Z,71.66
2023-03-26T22:00:14.212Z,71.56
2023-03-26T22:05:25.002Z,71.92
2023-03-26T22:10:29.546Z,71.94
2023-03-26T22:15:31.342Z,71.98
2023-03-26T22:20:33.981Z,72.34
2023-03-26T22:25:35.859Z,72.68
2023-03-26T22:30:37.368Z,73.04
2023-03-26T22:35:41.292Z,73.52
2023-03-26T22:40:42.920Z,73.57
2023-03-26T22:45:49.942Z,73.71
2023-03-26T22:50:58.367Z,74.02
2023-03-26T22:56:00.847Z,73.98
2023-03-26T23:01:09.070Z,74.39
2023-03-26T23:06:12.102Z,74.88
2023-03-26T23:11:16.950Z,75.08
2023-03-26T23:16:19.794Z,75.40
2023-03-26T23:21:22.176Z,75.48
2023-03-26T23:26:24.547Z,75.79
2023-03-26T23:31:27.291Z,76.23
2023-03-26T23:36:29.155Z,76.59
2023-03-26T23:41:30.696Z,76.56
2023-03-26T23:46:35.406Z,77.19
2023-03-26T23:51:37.026Z,77.30
2023-03-26T23:56:38.738Z,77.55
